Vincent, Alabama
Current Conditions -  °F | °C
As of 12:15 PM on Sunday 25 Jan 2015 (Local Time) from KSCD Reporting Station
Clear Clear  
Wind Chill: 58°   Ceiling: Unl
Heat Index: 58°   Visibility: 10mi
Dew Point: 37°   Wind: 9mph
Humidity: 46%   Direction: 210°SSW
Pressure: 29.84"   Gusts: NA
Location:  33.38°N, 86.41°W
Report Text: KSCD 251815Z AUTO 21008KT 10SM CLR 14/03 A2984 RMK AO2 T01430028
Loading
Personal Weather Stations






























Interactive Weather Map New forecast layout! Learn more

10-Day Weather Forecast

Advertisements
Track Severe Weather on mobile